Time;durP1;ratioP1;P1;durP2;ratioP2;P2;SDS_P1;SDS_P2;PMS_P1;PMS_P2;Temp;Humidity;BMP_temperature;BMP_pressure;BME280_temperature;BME280_humidity;BME280_pressure;Samples;Min_cycle;Max_cycle;Signal;HPM_P1;HPM_P2
2024/02/20 12:17:29;;;;;;;;;;;;;;;;;;;;;
2024/02/20 13:30:42;;;;;;;12.00;3.53;;;9.70;99.90;;;;;;4841522;24;20182;-94
2024/02/20 14:07:32;;;;;;;;;;;;;;;;;;;;;
2024/02/20 14:17:23;;;;;;;;;;;;;;;;;;;;;
2024/02/20 14:36:40;;;;;;;7.50;2.17;;;9.20;99.90;;;;;;5111786;23;20210;-93
2024/02/20 14:40:04;;;;;;;3.10;1.85;;;9.20;99.90;;;;;;4983579;23;20184;-95
2024/02/20 14:43:39;;;;;;;9.48;2.15;;;9.30;99.90;;;;;;4909468;23;20164;-95
2024/02/20 14:46:50;;;;;;;;;;;;;;;;;;;;;
2024/02/20 14:49:59;;;;;;;12.35;2.17;;;9.40;99.90;;;;;;4773521;24;20206;-94
2024/02/20 14:56:01;;;;;;;13.20;3.08;;;9.60;99.90;;;;;;4685657;25;20200;-95
2024/02/20 14:58:31;;;;;;;10.52;2.13;;;9.60;99.90;;;;;;4668224;25;20200;-94
2024/02/20 15:11:10;;;;;;;9.38;2.80;;;9.60;99.90;;;;;;4636793;25;20636;-95
2024/02/20 15:13:55;;;;;;;6.82;2.67;;;9.50;99.90;;;;;;4875925;24;20201;-93
2024/02/20 15:16:59;;;;;;;;;;;;;;;;;;;;;
2024/02/20 15:19:50;;;;;;;;;;;;;;;;;;;;;
2024/02/20 15:36:02;;;;;;;10.80;2.50;;;9.50;99.90;;;;;;5054879;23;20186;-92
2024/02/20 15:39:11;;;;;;;15.55;4.28;;;9.60;99.90;;;;;;5073931;23;20185;-93
2024/02/20 15:41:34;;;;;;;6.97;2.28;;;9.60;99.90;;;;;;5029848;23;20157;-95
2024/02/20 15:44:58;;;;;;;;;;;;;;;;;;;;;
2024/02/20 15:47:59;;;;;;;9.32;3.97;;;9.70;99.90;;;;;;4983141;23;20172;-94
2024/02/20 15:53:17;;;;;;;;;;;;;;;;;;;;;
2024/02/20 15:56:43;;;;;;;13.88;3.25;;;9.50;99.90;;;;;;5083717;23;20204;-93
2024/02/20 16:12:16;;;;;;;7.88;3.22;;;9.50;99.90;;;;;;4773472;24;20661;-94
2024/02/20 16:19:13;;;;;;;;;;;;;;;;;;;;;
2024/02/20 16:25:37;;;;;;;9.30;3.53;;;9.40;99.90;;;;;;4820380;24;20188;-95
2024/02/20 16:27:53;;;;;;;7.50;3.30;;;9.30;99.90;;;;;;4816965;24;20177;-93
2024/02/20 16:32:27;;;;;;;17.23;5.85;;;9.30;99.90;;;;;;5069391;23;20197;-95
2024/02/20 16:44:49;;;;;;;27.85;6.07;;;9.20;99.90;;;;;;4904957;24;20169;-95
2024/02/20 16:48:03;;;;;;;;;;;;;;;;;;;;;
2024/02/20 16:51:26;;;;;;;17.20;4.72;;;9.10;99.90;;;;;;4920796;24;20162;-95
2024/02/20 16:56:17;;;;;;;;;;;;;;;;;;;;;
2024/02/20 17:05:24;;;;;;;;;;;;;;;;;;;;;
2024/02/20 17:11:39;;;;;;;;;;;;;;;;;;;;;
2024/02/20 17:15:15;;;;;;;;;;;;;;;;;;;;;
2024/02/20 17:21:26;;;;;;;;;;;;;;;;;;;;;
2024/02/20 17:27:27;;;;;;;20.63;5.07;;;9.20;99.90;;;;;;4840804;24;20181;-93
2024/02/20 17:29:28;;;;;;;16.23;5.43;;;9.20;99.90;;;;;;4943873;23;20160;-92
2024/02/20 17:31:33;;;;;;;10.93;3.55;;;9.20;99.90;;;;;;5008749;23;20160;-91
2024/02/20 17:33:35;;;;;;;5.28;2.13;;;9.30;99.90;;;;;;5106722;23;20169;-90
2024/02/20 17:35:36;;;;;;;9.05;3.58;;;9.30;99.90;;;;;;5093515;23;20142;-92
2024/02/20 17:37:37;;;;;;;10.48;3.70;;;9.20;99.90;;;;;;5101035;23;20163;-92
2024/02/20 17:39:38;;;;;;;18.55;3.78;;;9.20;99.90;;;;;;5070696;23;20157;-95
2024/02/20 17:41:39;;;;;;;20.77;4.75;;;9.20;99.90;;;;;;5070330;23;20153;-94
2024/02/20 17:43:40;;;;;;;19.13;4.32;;;9.20;99.90;;;;;;5070383;23;20615;-92
2024/02/20 17:45:41;;;;;;;15.02;3.92;;;9.20;99.90;;;;;;5070193;23;20150;-92
2024/02/20 17:47:42;;;;;;;15.75;3.92;;;9.20;99.90;;;;;;5094846;23;20149;-93
2024/02/20 17:49:43;;;;;;;11.15;3.75;;;9.20;99.90;;;;;;5070151;23;20150;-93
2024/02/20 17:51:44;;;;;;;12.77;3.80;;;9.30;99.90;;;;;;5095133;23;20153;-93
2024/02/20 17:53:46;;;;;;;7.22;2.75;;;9.30;99.90;;;;;;5070779;23;20197;-92
2024/02/20 17:55:47;;;;;;;7.45;2.90;;;9.30;99.90;;;;;;5095464;23;20167;-92
2024/02/20 17:57:48;;;;;;;14.77;3.67;;;9.30;99.90;;;;;;5070652;23;20173;-92
2024/02/20 17:59:49;;;;;;;13.88;2.88;;;9.30;99.90;;;;;;5070538;23;20149;-93
2024/02/20 18:01:50;;;;;;;12.63;3.72;;;9.30;99.90;;;;;;5071452;23;20232;-92
2024/02/20 18:03:52;;;;;;;7.15;3.17;;;9.20;99.90;;;;;;5070664;23;20621;-93
2024/02/20 18:05:53;;;;;;;12.85;4.28;;;9.20;99.90;;;;;;5070541;23;20154;-92
2024/02/20 18:07:54;;;;;;;8.40;2.22;;;9.20;99.90;;;;;;5094671;23;20180;-93
2024/02/20 18:09:55;;;;;;;10.32;1.92;;;9.40;99.90;;;;;;5070288;23;20150;-91
2024/02/20 18:11:57;;;;;;;8.52;3.60;;;9.30;99.90;;;;;;5070354;23;20153;-92
2024/02/20 18:13:58;;;;;;;14.48;3.95;;;9.30;99.90;;;;;;5070221;23;20536;-92
2024/02/20 18:15:58;;;;;;;6.72;2.78;;;9.30;99.90;;;;;;5070265;23;20157;-93
2024/02/20 18:17:59;;;;;;;10.90;2.25;;;9.20;99.90;;;;;;5095478;23;20176;-95
2024/02/20 18:20:00;;;;;;;6.75;3.17;;;9.20;99.90;;;;;;5070386;23;20176;-92
2024/02/20 18:22:01;;;;;;;14.52;2.33;;;9.20;99.90;;;;;;5095009;23;20157;-93
2024/02/20 18:24:02;;;;;;;3.72;1.92;;;9.10;99.90;;;;;;5070116;23;20160;-93
2024/02/20 18:26:03;;;;;;;6.72;3.00;;;9.20;99.90;;;;;;5094442;23;20148;-93
2024/02/20 18:28:04;;;;;;;8.02;1.95;;;9.20;99.90;;;;;;5070154;23;20237;-90
2024/02/20 18:30:09;;;;;;;9.45;2.78;;;9.20;99.90;;;;;;5094307;23;20664;-93
2024/02/20 18:32:10;;;;;;;9.18;2.28;;;9.30;99.90;;;;;;5094284;23;20189;-93
2024/02/20 18:34:12;;;;;;;8.30;2.47;;;9.30;99.90;;;;;;5094137;23;20271;-92
2024/02/20 18:36:13;;;;;;;10.18;2.85;;;9.30;99.90;;;;;;5069999;23;20512;-93
2024/02/20 18:38:14;;;;;;;15.27;2.65;;;9.30;99.90;;;;;;5070103;23;20173;-93
2024/02/20 18:40:15;;;;;;;11.88;2.78;;;9.20;99.90;;;;;;5070210;23;20157;-93
2024/02/20 18:42:16;;;;;;;4.80;1.80;;;9.30;99.90;;;;;;5070123;23;20164;-93
2024/02/20 18:44:17;;;;;;;11.25;2.72;;;9.30;99.90;;;;;;5069962;23;20165;-94
2024/02/20 18:46:19;;;;;;;3.17;1.92;;;9.30;99.90;;;;;;5069826;23;20189;-92
2024/02/20 18:48:23;;;;;;;4.78;2.10;;;9.20;99.90;;;;;;5069869;23;20228;-93
2024/02/20 18:50:25;;;;;;;4.78;1.58;;;9.10;99.90;;;;;;5094480;23;20793;-93
2024/02/20 18:52:25;;;;;;;3.35;1.63;;;9.10;99.90;;;;;;5093967;23;20184;-93
2024/02/20 18:54:26;;;;;;;9.75;1.85;;;9.10;99.90;;;;;;5094016;23;20231;-93
2024/02/20 18:56:27;;;;;;;10.68;1.95;;;9.10;99.90;;;;;;5094137;23;20157;-92
2024/02/20 18:58:28;;;;;;;6.32;1.75;;;9.00;99.90;;;;;;5069221;23;20252;-92
2024/02/20 19:00:29;;;;;;;6.25;2.20;;;9.10;99.90;;;;;;5069568;23;20150;-93
2024/02/20 19:02:30;;;;;;;8.77;2.42;;;9.10;99.90;;;;;;5070047;23;20150;-92
2024/02/20 19:04:31;;;;;;;4.65;1.30;;;9.10;99.90;;;;;;5070173;23;20170;-93
2024/02/20 19:06:32;;;;;;;4.18;1.50;;;9.20;99.90;;;;;;5070053;23;20156;-92
2024/02/20 19:08:33;;;;;;;11.30;2.53;;;9.10;99.90;;;;;;5093991;23;20176;-93
2024/02/20 19:10:36;;;;;;;14.50;2.75;;;9.10;99.90;;;;;;5069575;23;20153;-92
2024/02/20 19:12:37;;;;;;;13.63;2.40;;;9.10;99.90;;;;;;5069561;23;20154;-92
2024/02/20 19:14:38;;;;;;;16.52;2.67;;;9.20;99.90;;;;;;5069696;23;20212;-93
2024/02/20 19:16:39;;;;;;;11.48;1.88;;;9.20;99.90;;;;;;5094393;23;20149;-92
2024/02/20 19:18:40;;;;;;;6.03;1.40;;;9.30;99.90;;;;;;5070192;23;20184;-92
2024/02/20 19:20:41;;;;;;;4.15;2.45;;;9.30;99.90;;;;;;5094171;23;20156;-93
2024/02/20 19:22:42;;;;;;;6.78;2.63;;;9.30;99.90;;;;;;5094055;23;20192;-94
2024/02/20 19:24:43;;;;;;;7.38;2.03;;;9.30;99.90;;;;;;5094011;23;20153;-91
2024/02/20 19:26:43;;;;;;;24.10;2.25;;;9.30;99.90;;;;;;5069695;23;20150;-92
2024/02/20 19:28:44;;;;;;;9.63;2.05;;;9.30;99.90;;;;;;5069817;23;20177;-93
2024/02/20 19:30:45;;;;;;;5.88;2.13;;;9.30;99.90;;;;;;5093901;23;20153;-93
2024/02/20 19:32:48;;;;;;;5.30;1.83;;;9.30;99.90;;;;;;5069304;23;20156;-94
2024/02/20 19:34:49;;;;;;;11.50;2.65;;;9.30;99.90;;;;;;5069334;23;20244;-93
2024/02/20 19:36:50;;;;;;;15.02;2.38;;;9.20;99.90;;;;;;5093948;23;20152;-92
2024/02/20 19:38:51;;;;;;;9.10;2.90;;;9.30;99.90;;;;;;5094286;23;20180;-92
2024/02/20 19:40:52;;;;;;;8.45;3.10;;;9.20;99.90;;;;;;5070001;23;20254;-92
2024/02/20 19:42:53;;;;;;;4.32;1.77;;;9.30;99.90;;;;;;5069621;23;20236;-92
2024/02/20 19:44:54;;;;;;;6.68;2.05;;;9.30;99.90;;;;;;5093957;23;20559;-93
2024/02/20 19:46:56;;;;;;;7.43;2.05;;;9.30;99.90;;;;;;5069896;23;20150;-92
2024/02/20 19:48:57;;;;;;;14.02;1.45;;;9.20;99.90;;;;;;5069845;23;20200;-93
2024/02/20 19:50:59;;;;;;;7.18;1.95;;;9.20;99.90;;;;;;5093862;23;20161;-93
2024/02/20 19:53:00;;;;;;;6.78;1.65;;;9.20;99.90;;;;;;5069415;23;20213;-93
2024/02/20 19:55:01;;;;;;;6.85;2.30;;;9.20;99.90;;;;;;5069509;23;20169;-92
2024/02/20 19:57:02;;;;;;;16.50;2.58;;;9.30;99.90;;;;;;5069657;23;20177;-93
2024/02/20 19:59:03;;;;;;;7.75;2.25;;;9.30;99.90;;;;;;5073065;23;20177;-92
2024/02/20 20:01:05;;;;;;;5.93;2.13;;;9.30;99.90;;;;;;5081574;23;20146;-93
2024/02/20 20:03:05;;;;;;;29.05;2.13;;;9.30;99.90;;;;;;5092273;23;20165;-94
2024/02/20 20:05:07;;;;;;;6.20;2.45;;;9.10;99.90;;;;;;5075967;23;20162;-92
2024/02/20 20:07:08;;;;;;;14.95;2.45;;;9.10;99.90;;;;;;5094647;23;20195;-93
2024/02/20 20:09:14;;;;;;;8.65;2.10;;;9.10;99.90;;;;;;5070073;23;20232;-93
2024/02/20 20:11:15;;;;;;;5.75;1.92;;;9.10;99.90;;;;;;5069575;23;20165;-92
2024/02/20 20:13:17;;;;;;;9.30;2.25;;;9.00;99.90;;;;;;5093751;23;20172;-93
2024/02/20 20:15:20;;;;;;;14.70;2.55;;;9.10;99.90;;;;;;5070161;23;20208;-93
2024/02/20 20:17:24;;;;;;;13.00;2.92;;;9.10;99.90;;;;;;5093756;23;20588;-93
2024/02/20 20:19:24;;;;;;;9.45;2.70;;;9.00;99.90;;;;;;5068853;23;20177;-92
2024/02/20 20:21:25;;;;;;;15.68;2.78;;;9.00;99.90;;;;;;5069292;23;20153;-93
2024/02/20 20:23:28;;;;;;;10.30;2.40;;;9.00;99.90;;;;;;5094008;23;20565;-92
2024/02/20 20:25:29;;;;;;;16.73;2.45;;;9.10;99.90;;;;;;5093947;23;20168;-93
2024/02/20 20:27:30;;;;;;;6.57;1.80;;;9.10;99.90;;;;;;5069339;23;20177;-93
2024/02/20 20:29:32;;;;;;;7.53;1.83;;;9.20;99.90;;;;;;5069852;23;20276;-92
2024/02/20 20:31:33;;;;;;;9.57;1.15;;;9.10;99.90;;;;;;5069393;23;20184;-93
2024/02/20 20:33:35;;;;;;;12.52;2.15;;;9.10;99.90;;;;;;5069289;23;20197;-92
2024/02/20 20:35:36;;;;;;;8.73;2.33;;;9.10;99.90;;;;;;5069064;23;20153;-93
2024/02/20 20:37:37;;;;;;;8.02;1.77;;;9.10;99.90;;;;;;5069507;23;20157;-93
2024/02/20 20:39:39;;;;;;;7.07;2.20;;;9.10;99.90;;;;;;5069230;23;20154;-95
2024/02/20 20:41:40;;;;;;;21.35;2.25;;;9.10;99.90;;;;;;5069429;23;20164;-92
2024/02/20 20:43:41;;;;;;;13.40;2.50;;;9.10;99.90;;;;;;5093735;23;20615;-91
2024/02/20 20:45:42;;;;;;;8.57;1.80;;;9.10;99.90;;;;;;5069356;23;20236;-93
2024/02/20 20:47:43;;;;;;;5.05;0.80;;;9.10;99.90;;;;;;5093547;23;20634;-92
2024/02/20 20:49:45;;;;;;;3.28;1.52;;;9.10;99.90;;;;;;5069127;23;20158;-93
2024/02/20 20:51:46;;;;;;;11.38;2.35;;;9.10;99.90;;;;;;5069319;23;20154;-93
2024/02/20 20:53:47;;;;;;;16.98;2.22;;;9.20;99.90;;;;;;5069192;23;20189;-91
2024/02/20 20:55:48;;;;;;;6.72;1.50;;;9.20;99.90;;;;;;5093516;23;20256;-93
2024/02/20 20:57:49;;;;;;;8.90;2.58;;;9.20;99.90;;;;;;5068857;23;20648;-93
2024/02/20 20:59:50;;;;;;;5.93;1.88;;;9.10;99.90;;;;;;5093393;23;20691;-92
2024/02/20 21:03:40;;;;;;;6.20;2.13;;;9.10;99.90;;;;;;4229955;27;20281;-94
2024/02/20 21:05:42;;;;;;;19.70;2.70;;;9.10;99.90;;;;;;4211929;28;20264;-93
2024/02/20 21:07:43;;;;;;;10.93;2.10;;;9.20;99.90;;;;;;4212095;28;20272;-94
2024/02/20 21:09:44;;;;;;;10.23;1.88;;;9.20;99.90;;;;;;4212077;28;20177;-93
2024/02/20 21:11:45;;;;;;;11.18;1.35;;;9.20;99.90;;;;;;4212111;28;20174;-94
2024/02/20 21:13:46;;;;;;;8.43;3.00;;;9.10;99.90;;;;;;4211876;28;20586;-94
2024/02/20 21:15:47;;;;;;;15.27;2.25;;;9.10;99.90;;;;;;4212050;28;20231;-94
2024/02/20 21:17:47;;;;;;;10.68;1.70;;;9.20;99.90;;;;;;4228847;28;20189;-94
2024/02/20 21:19:49;;;;;;;5.15;1.77;;;9.20;99.90;;;;;;4211947;28;20178;-94
2024/02/20 21:21:50;;;;;;;8.02;2.53;;;9.30;99.90;;;;;;4212226;28;20301;-96
2024/02/20 21:23:52;;;;;;;10.85;1.75;;;9.30;99.90;;;;;;4212044;28;20166;-95
2024/02/20 21:25:52;;;;;;;5.30;2.10;;;9.20;99.90;;;;;;4212120;28;20171;-94
2024/02/20 21:27:54;;;;;;;4.65;2.05;;;9.20;99.90;;;;;;4228619;28;20502;-93
2024/02/20 21:29:55;;;;;;;13.65;2.47;;;9.20;99.90;;;;;;4211911;28;20736;-94
2024/02/20 21:31:56;;;;;;;14.32;1.92;;;9.20;99.90;;;;;;4212061;28;20174;-94
2024/02/20 21:33:57;;;;;;;8.07;2.53;;;9.30;99.90;;;;;;4211758;28;20712;-94
2024/02/20 21:36:03;;;;;;;10.68;1.85;;;9.30;99.90;;;;;;4228410;28;20166;-93
2024/02/20 21:38:06;;;;;;;9.95;2.22;;;9.40;99.90;;;;;;4211593;28;20202;-93
2024/02/20 21:40:07;;;;;;;7.40;1.80;;;9.50;99.90;;;;;;4211738;28;20240;-93
2024/02/20 21:42:08;;;;;;;4.57;1.77;;;9.40;99.90;;;;;;4211628;28;20206;-94
2024/02/20 21:44:09;;;;;;;5.20;1.67;;;9.40;99.90;;;;;;4228632;28;20208;-95
2024/02/20 21:46:17;;;;;;;12.35;2.80;;;9.40;99.90;;;;;;4211403;28;20194;-93
2024/02/20 21:48:18;;;;;;;8.65;2.83;;;9.30;99.90;;;;;;4211469;28;20770;-94
2024/02/20 21:50:19;;;;;;;14.75;2.22;;;9.40;99.90;;;;;;4228193;28;20231;-94
2024/02/20 21:52:20;;;;;;;15.70;4.05;;;9.40;99.90;;;;;;4211262;28;20166;-93
2024/02/20 21:54:21;;;;;;;13.30;1.80;;;9.50;99.90;;;;;;4228128;28;20177;-94
2024/02/20 21:56:22;;;;;;;9.68;1.83;;;9.50;99.90;;;;;;4211279;28;20171;-93
2024/02/20 21:58:22;;;;;;;7.95;2.35;;;9.50;99.90;;;;;;4211209;28;20194;-94
2024/02/20 22:00:23;;;;;;;4.35;2.20;;;9.50;99.90;;;;;;4211354;28;20213;-94
2024/02/20 22:02:25;;;;;;;4.75;2.05;;;9.50;99.90;;;;;;4211062;28;20701;-94
2024/02/20 22:04:26;;;;;;;14.50;2.75;;;9.40;99.90;;;;;;4211069;28;20230;-95
2024/02/20 22:06:27;;;;;;;4.97;1.65;;;9.40;99.90;;;;;;4211350;28;20236;-92
2024/02/20 22:08:29;;;;;;;15.15;3.17;;;9.50;99.90;;;;;;4211272;28;20194;-94
2024/02/20 22:10:30;;;;;;;7.70;1.85;;;9.60;99.90;;;;;;4211246;28;20557;-94
2024/02/20 22:12:32;;;;;;;11.05;2.92;;;9.60;99.90;;;;;;4211037;28;20167;-94
2024/02/20 22:14:33;;;;;;;6.82;2.13;;;9.60;99.90;;;;;;4201672;28;20273;-94
2024/02/20 22:16:33;;;;;;;11.05;2.28;;;9.60;99.90;;;;;;4217082;28;20170;-94
2024/02/20 22:18:34;;;;;;;6.32;2.75;;;9.50;99.90;;;;;;4200053;28;20613;-94
2024/02/20 22:20:36;;;;;;;11.40;3.05;;;9.50;99.90;;;;;;4199847;28;20170;-94
2024/02/20 22:22:37;;;;;;;6.65;2.08;;;9.40;99.90;;;;;;4199556;28;20211;-94
2024/02/20 22:24:38;;;;;;;8.65;2.28;;;9.50;99.90;;;;;;4216579;28;20161;-94
2024/02/20 22:26:39;;;;;;;6.32;1.77;;;9.40;99.90;;;;;;4199494;28;20229;-93
2024/02/20 22:28:40;;;;;;;6.80;2.70;;;9.30;99.90;;;;;;4199384;28;20768;-94
2024/02/20 22:30:41;;;;;;;14.27;2.38;;;9.30;99.90;;;;;;4199690;28;20175;-94
2024/02/20 22:32:42;;;;;;;7.63;2.90;;;9.30;99.90;;;;;;4199616;28;20178;-93
2024/02/20 22:34:46;;;;;;;7.72;2.70;;;9.40;99.90;;;;;;4216278;28;20162;-93
2024/02/20 22:36:49;;;;;;;4.32;1.92;;;9.30;99.90;;;;;;4199643;28;20628;-94
2024/02/20 22:38:51;;;;;;;9.75;2.13;;;9.30;99.90;;;;;;4199441;28;20281;-94
2024/02/20 22:40:52;;;;;;;13.80;1.92;;;9.30;99.90;;;;;;4199561;28;20198;-93
2024/02/20 22:42:53;;;;;;;6.95;2.20;;;9.30;99.90;;;;;;4216046;28;20214;-94
2024/02/20 22:44:54;;;;;;;5.35;2.80;;;9.30;99.90;;;;;;4199259;28;20163;-93
2024/02/20 22:46:55;;;;;;;6.13;1.88;;;9.20;99.90;;;;;;4199276;28;20619;-94
2024/02/20 22:48:56;;;;;;;12.80;2.85;;;9.20;99.90;;;;;;4199174;28;20282;-94
2024/02/20 22:50:57;;;;;;;8.60;2.25;;;9.20;99.90;;;;;;4216166;28;20257;-94
2024/02/20 22:52:58;;;;;;;14.48;3.30;;;9.20;99.90;;;;;;4199676;28;20179;-93
2024/02/20 22:54:59;;;;;;;10.02;2.40;;;9.10;99.90;;;;;;4216391;28;20175;-93
2024/02/20 22:57:00;;;;;;;7.10;1.90;;;9.10;99.90;;;;;;4199394;28;20354;-94
2024/02/20 22:59:01;;;;;;;22.40;3.17;;;9.10;99.90;;;;;;4199436;28;20282;-92
2024/02/20 23:01:03;;;;;;;8.45;2.08;;;9.10;99.90;;;;;;4216319;28;20525;-95
2024/02/20 23:03:04;;;;;;;11.52;3.25;;;9.20;99.90;;;;;;4216042;28;20300;-93
2024/02/20 23:05:05;;;;;;;6.13;2.17;;;9.30;99.90;;;;;;4199316;28;20167;-95
2024/02/20 23:07:07;;;;;;;5.60;2.42;;;9.30;99.90;;;;;;4199096;28;20179;-93
2024/02/20 23:09:08;;;;;;;16.88;2.30;;;9.30;99.90;;;;;;4199006;28;20187;-93
2024/02/20 23:11:09;;;;;;;9.77;1.80;;;9.40;99.90;;;;;;4199310;28;20182;-93
2024/02/20 23:13:10;;;;;;;6.18;1.70;;;9.50;99.90;;;;;;4199165;28;20191;-95
2024/02/20 23:15:11;;;;;;;10.95;2.38;;;9.50;99.90;;;;;;4199060;28;20183;-94
2024/02/20 23:17:12;;;;;;;7.00;2.90;;;9.60;99.90;;;;;;4199065;28;20174;-95
2024/02/20 23:19:13;;;;;;;7.88;2.22;;;9.70;99.90;;;;;;4198935;28;20199;-94
2024/02/20 23:21:14;;;;;;;19.60;2.15;;;9.70;99.90;;;;;;4215529;28;20185;-94
2024/02/20 23:23:15;;;;;;;5.53;2.05;;;9.70;99.90;;;;;;4198765;28;20211;-94
2024/02/20 23:25:16;;;;;;;6.65;2.45;;;9.60;99.90;;;;;;4198038;28;20630;-94
2024/02/20 23:27:17;;;;;;;5.13;1.58;;;9.60;99.90;;;;;;4198626;28;20189;-93
2024/02/20 23:29:18;;;;;;;10.93;2.80;;;9.60;99.90;;;;;;4198339;28;20273;-96
2024/02/20 23:31:20;;;;;;;7.78;2.92;;;9.60;99.90;;;;;;4215572;28;20221;-95
2024/02/20 23:33:21;;;;;;;10.20;1.95;;;9.70;99.90;;;;;;4198879;28;20175;-95
2024/02/20 23:35:22;;;;;;;11.40;2.70;;;9.70;99.90;;;;;;4215539;28;20258;-95
2024/02/20 23:37:23;;;;;;;10.30;2.40;;;9.80;99.90;;;;;;4198705;28;20182;-93
2024/02/20 23:39:24;;;;;;;10.48;2.72;;;10.00;99.90;;;;;;4215271;28;20224;-94
2024/02/20 23:41:24;;;;;;;3.97;1.55;;;10.00;99.90;;;;;;4198530;28;20171;-95
2024/02/20 23:43:25;;;;;;;9.50;2.63;;;9.90;99.90;;;;;;4198530;28;20214;-93
2024/02/20 23:45:26;;;;;;;7.78;2.95;;;9.90;99.90;;;;;;4198420;28;20191;-93
2024/02/20 23:47:27;;;;;;;14.95;2.10;;;10.00;99.90;;;;;;4198451;28;20692;-93
2024/02/20 23:49:28;;;;;;;16.08;2.85;;;10.10;99.90;;;;;;4198203;28;20254;-94
2024/02/20 23:51:29;;;;;;;6.65;2.20;;;10.10;99.90;;;;;;4215242;28;20670;-95
2024/02/20 23:53:30;;;;;;;6.57;2.58;;;10.10;99.90;;;;;;4198661;28;20185;-94
2024/02/20 23:55:31;;;;;;;13.25;2.30;;;10.10;99.90;;;;;;4215267;28;20170;-94
2024/02/20 23:57:32;;;;;;;6.07;2.25;;;10.00;99.90;;;;;;4198224;28;20545;-95
2024/02/20 23:59:33;;;;;;;7.45;2.70;;;9.80;99.90;;;;;;4214757;28;20170;-95
